Main page
METAR-TAF:

METAR-TAF

Airports :

Marshall Islands International Airport

Majuro, Marshall Islands

latitude: 07-04N, longitude: 171-17E, elevation: 2 m

Current weather observation

The report was made 4 hours and 36 minutes ago, at 20:52 UTC
Wind 16 kt from the Northeast
Temperature 29°C
Humidity 79%
Pressure 1012 hPa
Visibility: 24.1 km
Few clouds at a height of 1500 ft
Scattered clouds at a height of 5000 ft
Broken clouds at a height of 12000 ft
Broken clouds at a height of 30000 ft

METAR: PKMJ 182052Z 05016KT 15SM FEW015 SCT050 BKN120 BKN300 29/25 A2988 RMK LAST

Time: 13:28 (01:28 UTC)

Forecast

The report was made 1 hour and 56 minutes ago, at 23:32 UTC
Forecast valid from 19 at 00 UTC to 19 at 24 UTC
Wind 16 kt from the East/Northeast
Visibility: 10 km
Few clouds at a height of 1500 ft
Scattered clouds at a height of 5000 ft
showers in vicinity

TAF: PKMJ 182332Z 1900/1924 06016KT P6SM VCSH FEW015 SCT050

Weather observations and forecasts of more than 4000 airports (METAR and TAF reports).

The available stations are represented by yellow and red dots on the map.

Hover mouse over dot to see the name of the station.

Then click to see weather observations and forecasts.

To change the map : click on the green buttons with a black cross to zoom in, on the green button with a dash to zoom out, or on the green arrows for adjacent maps.


METAR-TAF: